Time;durP1;ratioP1;P1;durP2;ratioP2;P2;SDS_P1;SDS_P2;PMS_P1;PMS_P2;Temp;Humidity;BMP_temperature;BMP_pressure;BME280_temperature;BME280_humidity;BME280_pressure;Samples;Min_cycle;Max_cycle;Signal;HPM_P1;HPM_P2
2022/05/19 00:00:00;;;;;;;3.80;1.90;;;;;;;4.51;76.20;99688.81;104667;1274;72664;-26
2022/05/19 00:02:39;;;;;;;1.90;1.50;;;;;;;4.37;76.89;99689.46;104680;1271;61355;-27
2022/05/19 00:05:08;;;;;;;1.40;1.30;;;;;;;4.82;75.48;99692.54;104780;1271;61041;-25
2022/05/19 00:07:37;;;;;;;2.30;1.70;;;;;;;5.22;73.76;99697.39;104944;1271;74505;-25
2022/05/19 00:10:07;;;;;;;7.20;2.10;;;;;;;5.24;73.19;99701.56;104852;1273;74592;-25
2022/05/19 00:12:36;;;;;;;2.40;1.40;;;;;;;5.06;73.82;99701.91;104650;1271;72349;-25
2022/05/19 00:15:06;;;;;;;5.80;2.00;;;;;;;4.79;74.64;99701.66;104706;1274;62294;-25
2022/05/19 00:17:35;;;;;;;3.10;1.40;;;;;;;4.56;75.35;99703.38;104684;1271;62333;-25
2022/05/19 00:20:04;;;;;;;4.90;2.00;;;;;;;4.34;76.28;99700.76;104933;1271;75578;-25
2022/05/19 00:22:33;;;;;;;4.10;1.60;;;;;;;4.21;77.19;99698.06;104738;1271;76014;-27
2022/05/19 00:25:02;;;;;;;2.50;1.60;;;;;;;4.69;76.25;99700.86;104922;1271;74541;-26
2022/05/19 00:27:32;;;;;;;3.30;1.90;;;;;;;5.16;73.87;99701.77;104996;1271;62449;-25
2022/05/19 00:30:01;;;;;;;3.70;2.00;;;;;;;5.17;73.50;99703.94;105006;1271;62112;-25
2022/05/19 00:32:31;;;;;;;2.60;1.50;;;;;;;5.02;73.80;99702.29;104839;1271;75504;-25
2022/05/19 00:35:00;;;;;;;3.00;1.60;;;;;;;4.83;74.42;99705.60;104903;1271;76022;-25
2022/05/19 00:37:29;;;;;;;2.40;1.70;;;;;;;4.62;75.23;99707.92;105018;1272;74302;-25
2022/05/19 00:39:58;;;;;;;4.60;1.90;;;;;;;4.42;76.06;99706.25;104973;1271;61686;-25
2022/05/19 00:42:45;;;;;;;2.00;1.50;;;;;;;4.29;76.72;99702.54;104853;1274;62100;-25
2022/05/19 00:45:22;;;;;;;2.00;1.20;;;;;;;4.83;75.44;99703.70;104890;1271;75450;-25
2022/05/19 00:47:55;;;;;;;4.00;2.10;;;;;;;5.29;73.35;99698.88;104840;1271;76519;-25
2022/05/19 00:50:28;;;;;;;3.20;1.90;;;;;;;5.29;72.69;99698.56;104706;1271;74431;-25
2022/05/19 00:53:00;;;;;;;4.30;2.00;;;;;;;5.05;73.32;99700.91;104817;1271;61466;-25
2022/05/19 00:55:31;;;;;;;3.30;1.80;;;;;;;4.75;74.98;99704.60;105127;1272;61127;-25
2022/05/19 00:58:02;;;;;;;5.10;2.20;;;;;;;4.62;75.30;99702.25;105102;1271;74558;-25
2022/05/19 01:00:30;;;;;;;2.60;1.80;;;;;;;4.43;75.94;99700.00;104792;1274;76228;-27
2022/05/19 01:03:01;;;;;;;1.60;1.30;;;;;;;4.29;76.69;99700.27;104668;1271;74308;-25
2022/05/19 01:05:38;;;;;;;3.60;1.80;;;;;;;4.77;75.68;99702.09;104840;1273;62335;-25
2022/05/19 01:08:45;;;;;;;2.60;1.80;;;;;;;5.30;73.27;99699.20;104662;1274;61223;-24
2022/05/19 01:11:15;;;;;;;3.00;1.70;;;;;;;5.30;72.79;99701.80;104635;1272;75648;-25
2022/05/19 01:13:44;;;;;;;4.20;1.80;;;;;;;5.13;73.17;99700.38;104689;1271;76058;-27
2022/05/19 01:16:13;;;;;;;4.40;1.90;;;;;;;4.87;74.03;99701.09;104833;1272;73459;-26
2022/05/19 01:18:43;;;;;;;4.20;1.80;;;;;;;4.62;75.23;99705.85;104819;1272;61057;-25
2022/05/19 01:21:13;;;;;;;6.00;2.10;;;;;;;4.48;75.60;99706.85;104800;1273;61256;-26
2022/05/19 01:24:00;;;;;;;1.30;1.20;;;;;;;4.36;75.87;99701.20;104698;1272;75522;-27
2022/05/19 01:26:48;;;;;;;1.90;1.60;;;;;;;4.87;74.73;99696.11;105070;1274;74707;-27
2022/05/19 01:29:19;;;;;;;4.00;1.90;;;;;;;5.36;72.61;99700.30;105102;1271;74434;-25
2022/05/19 01:31:53;;;;;;;4.00;2.10;;;;;;;5.32;72.30;99698.07;105047;1274;61829;-25
2022/05/19 01:34:23;;;;;;;3.30;1.90;;;;;;;5.12;72.89;99695.61;104878;1271;61159;-25
2022/05/19 01:36:52;;;;;;;2.40;1.70;;;;;;;4.89;73.64;99697.05;105151;1271;75495;-25
2022/05/19 01:39:29;;;;;;;5.70;2.10;;;;;;;4.66;74.36;99698.11;104931;1271;76153;-25
2022/05/19 01:42:25;;;;;;;2.80;1.70;;;;;;;4.44;75.23;99701.34;104948;1272;73366;-27
2022/05/19 01:45:17;;;;;;;4.60;1.60;;;;;;;4.29;75.90;99699.61;104892;1271;61748;-25
2022/05/19 01:48:07;;;;;;;2.70;2.00;;;;;;;4.89;73.86;99702.70;104879;1271;62046;-25
2022/05/19 01:51:11;;;;;;;6.80;2.30;;;;;;;5.17;72.33;99703.30;104785;1271;75699;-25
2022/05/19 01:53:39;;;;;;;3.60;2.10;;;;;;;4.98;72.64;99704.17;104486;1271;75986;-25
2022/05/19 01:56:10;;;;;;;3.30;2.20;;;;;;;4.78;73.43;99709.09;104982;1274;74482;-25
2022/05/19 01:59:16;;;;;;;3.90;2.20;;;;;;;4.59;73.95;99711.48;105086;1271;61079;-25
2022/05/19 02:02:07;;;;;;;4.10;2.50;;;;;;;4.34;75.03;99716.23;105089;1274;61026;-26
2022/05/19 02:04:40;;;;;;;2.60;1.60;;;;;;;4.26;75.54;99711.44;105124;1271;75430;-26
2022/05/19 02:07:10;;;;;;;2.90;1.80;;;;;;;4.84;73.84;99714.13;105056;1271;74434;-26
2022/05/19 02:09:45;;;;;;;2.90;2.20;;;;;;;5.25;71.91;99712.19;104611;1272;74239;-26
2022/05/19 02:12:15;;;;;;;3.00;2.20;;;;;;;5.27;71.53;99714.84;104707;1274;62534;-26
2022/05/19 02:14:47;;;;;;;5.70;2.20;;;;;;;5.10;72.04;99718.78;104803;1271;61784;-26
2022/05/19 02:17:17;;;;;;;5.00;2.50;;;;;;;4.92;72.42;99715.83;104756;1274;74518;-26
2022/05/19 02:19:49;;;;;;;3.40;2.40;;;;;;;4.71;72.96;99719.02;104766;1271;75834;-26
2022/05/19 02:22:19;;;;;;;3.10;2.20;;;;;;;4.50;73.77;99718.94;104799;1271;74419;-26
2022/05/19 02:25:17;;;;;;;7.60;2.20;;;;;;;4.33;74.23;99718.55;104739;1271;61320;-26
2022/05/19 02:27:55;;;;;;;2.80;1.50;;;;;;;4.24;74.88;99716.69;104523;1271;61916;-28
2022/05/19 02:30:30;;;;;;;3.10;1.50;;;;;;;4.98;73.17;99723.10;105117;1271;75633;-26
2022/05/19 02:32:59;;;;;;;5.00;1.90;;;;;;;5.59;70.62;99723.80;104899;1271;76233;-26
2022/05/19 02:35:28;;;;;;;2.70;1.60;;;;;;;5.65;69.90;99722.97;105129;1274;74423;-26
2022/05/19 02:37:58;;;;;;;3.50;2.60;;;;;;;5.41;70.01;99721.91;105147;1271;61885;-26
2022/05/19 02:40:28;;;;;;;3.40;2.20;;;;;;;5.23;70.61;99725.55;104777;1274;61906;-26
2022/05/19 02:42:58;;;;;;;4.30;2.10;;;;;;;5.23;70.67;99725.71;104717;1271;74586;-26
2022/05/19 02:45:27;;;;;;;2.70;1.90;;;;;;;5.25;70.66;99727.20;104800;1274;75847;-27
2022/05/19 02:47:56;;;;;;;3.90;2.30;;;;;;;5.28;70.48;99726.34;104779;1271;74760;-25
2022/05/19 02:50:25;;;;;;;4.40;2.50;;;;;;;5.28;70.48;99724.61;105047;1272;61046;-25
2022/05/19 02:52:54;;;;;;;1.60;1.10;;;;;;;5.37;70.46;99727.63;105066;1271;61551;-25
2022/05/19 02:55:23;;;;;;;2.90;1.90;;;;;;;6.10;68.67;99728.83;105085;1274;75515;-25
2022/05/19 02:57:57;;;;;;;3.90;2.00;;;;;;;6.89;65.76;99736.70;104997;1271;73967;-25
2022/05/19 03:00:26;;;;;;;6.00;2.20;;;;;;;7.15;64.40;99737.36;105138;1271;74369;-26
2022/05/19 03:02:57;;;;;;;3.20;2.60;;;;;;;7.13;64.41;99741.61;104873;1273;61204;-27
2022/05/19 03:05:29;;;;;;;4.40;2.00;;;;;;;6.96;64.87;99744.65;104833;1271;61166;-27
2022/05/19 03:08:07;;;;;;;3.30;1.90;;;;;;;6.87;65.12;99745.29;104771;1274;75276;-26
2022/05/19 03:10:38;;;;;;;4.60;2.30;;;;;;;6.81;65.51;99751.65;104788;1271;76044;-27
2022/05/19 03:13:06;;;;;;;3.30;2.20;;;;;;;6.71;65.95;99748.90;104765;1271;73352;-26
2022/05/19 03:15:38;;;;;;;4.80;2.10;;;;;;;6.77;66.07;99748.23;104869;1274;61257;-26
2022/05/19 03:18:07;;;;;;;5.20;2.10;;;;;;;6.87;66.15;99752.21;104856;1271;61127;-27
2022/05/19 03:20:36;;;;;;;5.50;2.10;;;;;;;6.93;66.08;99757.02;104801;1274;75527;-26
2022/05/19 03:23:05;;;;;;;2.30;1.80;;;;;;;6.96;66.17;99761.39;104937;1271;75794;-27
2022/05/19 03:25:36;;;;;;;2.60;1.50;;;;;;;7.56;65.05;99761.31;104902;1271;73386;-27
2022/05/19 03:28:07;;;;;;;3.20;2.30;;;;;;;8.36;62.83;99763.02;104881;1271;62195;-26
2022/05/19 03:30:37;;;;;;;6.70;2.10;;;;;;;8.68;61.42;99764.56;104796;1271;62041;-27
2022/05/19 03:33:06;;;;;;;3.50;2.30;;;;;;;8.71;61.07;99764.89;104832;1271;75526;-27
2022/05/19 03:35:35;;;;;;;3.80;2.00;;;;;;;8.73;61.14;99768.23;104959;1272;75966;-27
2022/05/19 03:38:05;;;;;;;7.90;2.10;;;;;;;8.74;61.33;99769.59;104794;1271;74447;-26
2022/05/19 03:40:34;;;;;;;6.80;2.10;;;;;;;8.71;62.01;99769.42;104928;1271;61248;-26
2022/05/19 03:43:05;;;;;;;5.80;2.00;;;;;;;8.66;62.50;99772.17;105132;1271;62059;-26
2022/05/19 03:45:40;;;;;;;3.10;2.00;;;;;;;8.57;63.29;99768.87;105124;1271;75561;-24
2022/05/19 03:48:14;;;;;;;2.80;2.20;;;;;;;8.52;63.59;99773.48;105074;1271;75835;-24
2022/05/19 03:50:44;;;;;;;5.70;2.40;;;;;;;8.54;63.34;99772.00;105096;1271;74334;-24
2022/05/19 03:53:13;;;;;;;3.60;2.00;;;;;;;8.70;63.19;99767.92;105120;1272;61161;-27
2022/05/19 03:55:42;;;;;;;6.80;2.70;;;;;;;8.76;62.86;99765.49;104770;1271;62227;-27
2022/05/19 03:58:11;;;;;;;6.10;2.40;;;;;;;8.85;62.95;99768.04;105157;1272;73379;-27
2022/05/19 04:00:39;;;;;;;3.40;2.30;;;;;;;8.81;62.62;99768.96;105065;1271;75012;-26
2022/05/19 04:03:08;;;;;;;3.60;2.20;;;;;;;8.77;63.15;99773.19;104835;1274;73458;-26
2022/05/19 04:05:38;;;;;;;4.90;2.40;;;;;;;8.81;62.97;99772.61;104976;1271;61993;-26
2022/05/19 04:08:07;;;;;;;3.80;2.30;;;;;;;8.72;62.93;99774.73;105026;1271;62209;-26
2022/05/19 04:10:42;;;;;;;5.80;2.30;;;;;;;8.88;63.76;99783.40;105128;1274;75723;-26
2022/05/19 04:13:11;;;;;;;2.20;1.80;;;;;;;9.05;62.96;99782.71;105042;1271;76004;-26
2022/05/19 04:15:42;;;;;;;3.80;1.90;;;;;;;9.02;61.54;99779.24;104777;1271;74388;-26
2022/05/19 04:18:11;;;;;;;6.60;2.50;;;;;;;9.00;61.00;99781.33;104943;1271;61084;-26
2022/05/19 04:20:41;;;;;;;4.30;2.00;;;;;;;8.98;61.21;99786.46;104874;1271;62434;-26
2022/05/19 04:23:10;;;;;;;3.80;1.90;;;;;;;9.12;61.29;99787.32;104762;1271;75513;-26
2022/05/19 04:25:40;;;;;;;4.70;2.30;;;;;;;9.32;61.44;99786.19;104830;1271;75879;-26
2022/05/19 04:28:09;;;;;;;3.10;1.90;;;;;;;9.53;61.06;99786.41;104943;1271;73409;-26
2022/05/19 04:30:37;;;;;;;17.50;2.50;;;;;;;9.72;61.27;99792.80;104894;1270;61220;-26
2022/05/19 04:33:09;;;;;;;4.80;2.20;;;;;;;9.84;60.58;99793.40;104880;1271;62538;-26
2022/05/19 04:35:39;;;;;;;4.50;2.50;;;;;;;9.81;60.28;99796.24;104673;1272;74664;-26
2022/05/19 04:38:14;;;;;;;4.70;1.80;;;;;;;9.71;60.02;99796.52;104730;1271;75120;-26
2022/05/19 04:40:47;;;;;;;3.00;2.00;;;;;;;9.92;60.24;99793.35;104627;1272;74487;-26
2022/05/19 04:43:24;;;;;;;3.50;2.00;;;;;;;10.05;59.23;99793.77;104796;1272;62088;-26
2022/05/19 04:45:53;;;;;;;2.80;1.70;;;;;;;10.12;58.63;99791.70;104621;1274;62083;-26
2022/05/19 04:48:23;;;;;;;5.90;2.20;;;;;;;10.14;58.14;99788.96;104815;1274;74278;-26
2022/05/19 04:50:54;;;;;;;39.30;5.00;;;;;;;10.29;58.25;99790.04;104682;1274;75217;-25
2022/05/19 04:53:23;;;;;;;2.60;2.10;;;;;;;10.38;57.67;99792.95;104727;1271;73399;-26
2022/05/19 04:55:53;;;;;;;7.10;2.50;;;;;;;10.45;57.20;99794.92;104595;1275;62093;-26
2022/05/19 04:58:21;;;;;;;6.30;2.00;;;;;;;10.41;57.19;99795.67;104863;1274;62319;-26
2022/05/19 05:00:51;;;;;;;4.80;2.10;;;;;;;10.60;56.59;99800.96;104785;1271;74604;-26
2022/05/19 05:03:21;;;;;;;3.20;1.80;;;;;;;10.77;56.16;99802.26;104596;1276;74524;-25
2022/05/19 05:05:50;;;;;;;4.00;2.40;;;;;;;10.86;56.24;99805.10;104885;1271;73848;-26
2022/05/19 05:08:19;;;;;;;6.20;2.10;;;;;;;10.59;55.73;99808.00;104781;1274;63778;-26
2022/05/19 05:10:51;;;;;;;4.80;1.70;;;;;;;10.87;56.56;99809.56;104854;1271;61107;-25
2022/05/19 05:13:23;;;;;;;3.40;1.80;;;;;;;11.14;55.49;99806.71;104746;1274;75661;-26
2022/05/19 05:15:57;;;;;;;4.90;1.60;;;;;;;11.31;54.26;99810.75;104842;1271;76461;-26
2022/05/19 05:18:26;;;;;;;2.20;1.60;;;;;;;11.37;54.28;99809.63;105063;1271;74452;-26
2022/05/19 05:20:56;;;;;;;4.50;1.90;;;;;;;11.51;54.04;99810.04;105110;1274;61903;-26
2022/05/19 05:23:24;;;;;;;5.60;2.00;;;;;;;11.63;53.77;99810.53;104996;1271;61021;-26
2022/05/19 05:25:53;;;;;;;3.80;1.90;;;;;;;11.75;53.34;99809.34;104860;1271;75378;-26
2022/05/19 05:28:22;;;;;;;3.10;2.00;;;;;;;11.77;53.33;99807.21;104801;1271;76016;-26
2022/05/19 05:30:51;;;;;;;4.50;1.70;;;;;;;11.75;53.56;99803.06;104905;1271;74428;-26
2022/05/19 05:33:21;;;;;;;2.90;1.90;;;;;;;11.72;53.00;99804.65;104843;1271;61173;-26
2022/05/19 05:35:51;;;;;;;1.80;1.40;;;;;;;11.77;53.65;99808.63;104904;1271;61863;-25
2022/05/19 05:38:20;;;;;;;5.10;1.80;;;;;;;11.99;53.36;99806.19;104731;1272;75298;-26
2022/05/19 05:40:50;;;;;;;3.50;1.50;;;;;;;12.14;52.56;99805.58;104878;1271;75928;-26
2022/05/19 05:43:20;;;;;;;4.20;2.00;;;;;;;12.38;51.60;99803.27;104782;1271;74479;-26
2022/05/19 05:45:49;;;;;;;6.60;2.20;;;;;;;12.19;51.93;99802.73;104709;1273;62007;-26
2022/05/19 05:48:18;;;;;;;5.60;2.00;;;;;;;12.28;51.58;99810.06;104834;1271;62040;-26
2022/05/19 05:50:47;;;;;;;4.30;1.80;;;;;;;12.34;51.80;99814.30;104902;1271;75567;-26
2022/05/19 05:53:16;;;;;;;3.20;1.50;;;;;;;12.56;51.96;99818.23;104836;1272;75807;-25
2022/05/19 05:55:45;;;;;;;2.60;1.80;;;;;;;12.75;51.15;99819.22;104577;1275;74406;-25
2022/05/19 05:58:14;;;;;;;3.80;2.10;;;;;;;12.85;51.30;99821.34;104808;1271;61069;-26
2022/05/19 06:00:43;;;;;;;5.50;1.70;;;;;;;12.75;51.22;99824.25;104822;1272;61058;-25
2022/05/19 06:03:12;;;;;;;4.20;1.90;;;;;;;12.89;50.66;99828.73;104937;1271;75543;-25
2022/05/19 06:05:42;;;;;;;5.70;2.00;;;;;;;13.07;51.08;99831.31;104997;1271;75971;-26
2022/05/19 06:08:11;;;;;;;4.00;1.80;;;;;;;13.22;49.83;99829.66;104769;1271;73477;-26
2022/05/19 06:10:40;;;;;;;3.80;1.70;;;;;;;13.24;50.44;99828.98;104841;1271;61864;-26
2022/05/19 06:13:09;;;;;;;6.20;2.00;;;;;;;13.09;50.08;99829.43;104848;1271;62003;-26
2022/05/19 06:15:38;;;;;;;7.50;1.90;;;;;;;13.11;49.35;99827.89;104970;1271;74538;-25
2022/05/19 06:18:07;;;;;;;5.40;1.70;;;;;;;13.14;50.14;99835.46;104890;1271;76070;-26
2022/05/19 06:20:39;;;;;;;3.50;1.80;;;;;;;13.27;50.01;99842.98;104834;1271;74548;-26
2022/05/19 06:23:08;;;;;;;3.30;1.70;;;;;;;13.52;49.74;99837.20;104807;1272;61136;-25
2022/05/19 06:25:45;;;;;;;3.70;1.80;;;;;;;13.48;48.34;99838.40;104782;1271;62014;-26
2022/05/19 06:28:14;;;;;;;34.50;3.10;;;;;;;13.52;49.17;99834.77;104823;1272;75545;-27
2022/05/19 06:30:43;;;;;;;4.30;1.80;;;;;;;13.68;49.48;99834.73;104907;1271;74983;-26
2022/05/19 06:33:12;;;;;;;2.40;1.30;;;;;;;13.93;47.52;99839.14;104909;1271;74363;-26
2022/05/19 06:35:41;;;;;;;2.90;1.70;;;;;;;13.98;46.93;99831.21;104884;1271;61157;-26
2022/05/19 06:38:10;;;;;;;5.60;1.60;;;;;;;14.05;46.54;99821.73;104818;1271;62094;-26
2022/05/19 06:40:41;;;;;;;2.90;1.70;;;;;;;14.17;45.46;99818.46;104820;1274;74322;-26
2022/05/19 06:43:11;;;;;;;2.30;1.50;;;;;;;14.21;45.85;99818.87;104791;1274;75051;-26
2022/05/19 06:45:45;;;;;;;3.00;1.10;;;;;;;14.28;45.14;99817.34;104740;1271;73243;-26
2022/05/19 06:48:14;;;;;;;1.40;1.10;;;;;;;14.38;45.10;99821.73;104783;1271;61180;-26
2022/05/19 06:50:47;;;;;;;2.30;1.20;;;;;;;14.39;44.35;99817.86;104773;1274;61724;-26
2022/05/19 06:53:36;;;;;;;4.60;1.40;;;;;;;14.53;44.14;99812.99;104827;1271;75324;-26
2022/05/19 06:56:08;;;;;;;3.20;1.70;;;;;;;14.58;42.84;99816.39;104784;1271;75843;-26
2022/05/19 06:58:37;;;;;;;14.20;1.60;;;;;;;14.65;42.67;99812.42;104830;1271;73486;-26
2022/05/19 07:01:06;;;;;;;6.30;1.40;;;;;;;14.73;42.26;99815.67;104882;1271;61591;-26
2022/05/19 07:03:36;;;;;;;4.30;1.20;;;;;;;14.64;42.87;99817.30;105060;1271;61779;-25
2022/05/19 07:06:05;;;;;;;2.40;1.30;;;;;;;14.66;41.63;99812.05;104991;1271;75579;-25
2022/05/19 07:08:34;;;;;;;5.70;1.10;;;;;;;14.82;41.42;99806.45;104410;1272;562237;-26
2022/05/19 07:11:03;;;;;;;3.90;1.60;;;;;;;15.19;41.92;99804.86;104772;1271;74488;-25
2022/05/19 07:13:33;;;;;;;3.20;1.10;;;;;;;15.27;42.56;99804.35;104826;1271;62650;-25
2022/05/19 07:16:02;;;;;;;1.60;1.10;;;;;;;15.60;42.88;99806.30;104798;1274;61039;-25
2022/05/19 07:18:31;;;;;;;7.30;1.30;;;;;;;15.55;39.44;99804.30;104931;1271;73344;-26
2022/05/19 07:21:00;;;;;;;4.30;1.20;;;;;;;15.67;39.19;99800.44;104907;1271;76310;-25
2022/05/19 07:23:30;;;;;;;1.00;0.80;;;;;;;15.81;40.13;99804.20;104841;1271;73417;-25
2022/05/19 07:26:00;;;;;;;2.20;0.80;;;;;;;16.02;39.44;99802.13;105053;1271;62397;-25
2022/05/19 07:28:30;;;;;;;7.50;0.90;;;;;;;15.99;37.77;99803.13;105153;1271;62152;-25
2022/05/19 07:31:01;;;;;;;1.00;0.70;;;;;;;16.14;38.78;99800.30;105178;1271;74201;-26
2022/05/19 07:33:34;;;;;;;2.60;1.70;;;;;;;16.17;38.74;99801.25;105032;1274;75654;-26
2022/05/19 07:36:06;;;;;;;4.70;1.00;;;;;;;16.07;38.07;99797.63;104743;1271;74698;-25
2022/05/19 07:38:35;;;;;;;1.80;1.00;;;;;;;15.74;38.35;99792.91;104726;1271;61301;-26
2022/05/19 07:41:04;;;;;;;3.60;1.00;;;;;;;15.79;39.73;99801.59;104891;1271;61145;-25
2022/05/19 07:43:36;;;;;;;3.70;1.00;;;;;;;15.92;37.13;99785.02;104781;1271;75695;-25
2022/05/19 07:46:07;;;;;;;2.10;0.70;;;;;;;15.75;36.70;99790.80;105057;1271;76117;-25
2022/05/19 07:48:36;;;;;;;3.30;0.80;;;;;;;15.58;37.21;99796.13;104615;1274;73971;-25
2022/05/19 07:51:08;;;;;;;4.40;0.80;;;;;;;15.77;37.13;99785.46;104835;1271;61818;-25
2022/05/19 07:53:38;;;;;;;4.20;0.90;;;;;;;15.67;36.28;99793.70;104844;1271;61944;-27
2022/05/19 07:56:06;;;;;;;1.10;0.60;;;;;;;15.73;36.65;99795.65;104877;1271;75690;-25
2022/05/19 07:58:38;;;;;;;2.60;0.70;;;;;;;15.85;36.34;99781.64;104886;1271;76199;-25
2022/05/19 08:01:07;;;;;;;1.30;0.90;;;;;;;15.86;35.78;99794.37;104836;1271;74176;-25
2022/05/19 08:03:36;;;;;;;1.40;0.70;;;;;;;16.14;36.86;99794.38;104831;1272;62364;-25
2022/05/19 08:06:09;;;;;;;2.70;0.80;;;;;;;16.17;35.16;99792.45;104803;1271;62115;-25
2022/05/19 08:08:38;;;;;;;0.80;0.70;;;;;;;16.13;35.18;99781.03;104818;1274;74238;-26
2022/05/19 08:11:08;;;;;;;1.80;0.80;;;;;;;16.19;35.04;99776.06;104767;1272;74976;-25
2022/05/19 08:16:25;;;;;;;3.60;0.80;;;;;;;16.26;35.28;99759.30;104818;1272;62084;-25
2022/05/19 08:18:55;;;;;;;3.10;1.00;;;;;;;16.28;34.83;99790.98;105058;1271;61660;-26
2022/05/19 08:21:24;;;;;;;3.00;0.90;;;;;;;16.59;35.01;99792.54;104812;1272;73525;-25
2022/05/19 08:23:53;;;;;;;4.60;1.20;;;;;;;16.92;35.57;99786.89;104942;1271;76313;-25
2022/05/19 08:26:21;;;;;;;1.80;0.80;;;;;;;17.29;34.64;99780.21;105051;1271;74597;-25
2022/05/19 08:28:51;;;;;;;1.50;0.60;;;;;;;17.01;33.83;99771.83;104917;1271;62071;-25
2022/05/19 08:31:21;;;;;;;0.90;0.60;;;;;;;16.87;32.68;99759.53;104705;1274;60977;-26
2022/05/19 08:35:16;;;;;;;3.50;0.80;;;;;;;16.73;35.05;99757.17;101946;1306;600952;-24
2022/05/19 08:37:45;;;;;;;4.20;0.90;;;;;;;16.48;35.50;99760.38;104489;1282;62388;-26
2022/05/19 08:40:14;;;;;;;5.20;1.10;;;;;;;16.70;35.94;99754.10;104474;1284;61194;-24
2022/05/19 08:42:48;;;;;;;9.00;1.10;;;;;;;16.78;34.58;99757.23;104450;1284;73993;-24
2022/05/19 08:45:51;;;;;;;2.10;0.70;;;;;;;17.07;35.31;99764.03;104235;1284;76067;-24
2022/05/19 08:48:22;;;;;;;3.70;0.70;;;;;;;17.33;33.05;99760.86;103889;1281;384153;-24
2022/05/19 08:50:59;;;;;;;3.10;1.00;;;;;;;17.64;33.06;99762.04;104471;1281;62061;-24
2022/05/19 08:53:31;;;;;;;13.50;1.10;;;;;;;18.01;32.08;99753.42;104485;1281;62096;-24
2022/05/19 08:56:04;;;;;;;0.80;0.60;;;;;;;17.96;32.49;99750.75;104309;1281;73291;-24
2022/05/19 08:58:57;;;;;;;1.60;0.70;;;;;;;17.63;31.61;99751.39;104496;1281;75702;-25
2022/05/19 09:01:31;;;;;;;21.10;1.50;;;;;;;17.88;30.74;99748.81;104457;1281;74419;-24
2022/05/19 09:04:31;;;;;;;1.90;0.90;;;;;;;17.81;31.64;99744.92;104490;1281;62363;-24
2022/05/19 09:10:07;;;;;;;2.20;0.80;;;;;;;17.88;32.90;99746.13;104138;1281;73769;-25
2022/05/19 09:12:37;;;;;;;2.10;0.70;;;;;;;18.07;32.56;99739.28;104751;1273;73974;-24
2022/05/19 09:15:17;;;;;;;1.60;0.90;;;;;;;17.59;32.17;99733.59;104671;1275;73967;-25
2022/05/19 09:17:46;;;;;;;1.30;0.70;;;;;;;17.72;33.16;99735.31;105019;1273;62035;-24
2022/05/19 09:20:31;;;;;;;1.00;0.70;;;;;;;18.23;33.02;99735.75;104720;1274;61870;-24
2022/05/19 09:23:06;;;;;;;1.10;0.60;;;;;;;17.89;31.29;99736.19;104678;1275;74623;-25
2022/05/19 09:25:36;;;;;;;2.00;0.80;;;;;;;18.41;31.46;99732.82;104822;1274;75243;-26
2022/05/19 09:28:06;;;;;;;3.30;1.30;;;;;;;18.35;31.50;99732.21;104653;1275;75159;-26
2022/05/19 09:30:47;;;;;;;6.60;1.70;;;;;;;18.31;33.72;99726.36;104740;1274;61903;-26
2022/05/19 09:33:19;;;;;;;3.50;0.90;;;;;;;18.70;32.74;99734.13;104731;1274;62204;-25
2022/05/19 09:35:54;;;;;;;1.50;0.90;;;;;;;18.94;32.51;99726.83;104690;1274;74796;-26
2022/05/19 09:38:36;;;;;;;2.60;0.80;;;;;;;18.83;30.42;99734.33;104637;1275;74981;-25
2022/05/19 09:41:26;;;;;;;2.90;1.40;;;;;;;18.61;30.10;99733.25;104828;1275;73623;-25
2022/05/19 09:43:56;;;;;;;3.60;1.50;;;;;;;18.74;30.03;99728.27;105083;1274;61147;-25
2022/05/19 09:46:24;;;;;;;3.50;1.70;;;;;;;18.84;30.65;99724.95;104941;1275;62029;-26
2022/05/19 09:49:01;;;;;;;4.70;2.20;;;;;;;19.02;30.03;99719.65;104646;1275;73720;-26
2022/05/19 09:51:44;;;;;;;4.00;2.10;;;;;;;19.11;30.38;99713.83;104689;1275;75764;-25
2022/05/19 09:54:13;;;;;;;1.70;1.30;;;;;;;18.66;30.21;99706.35;104692;1275;73368;-26
2022/05/19 09:56:45;;;;;;;1.40;1.10;;;;;;;18.35;31.27;99711.88;104603;1274;61149;-26
2022/05/19 09:59:17;;;;;;;;;;;;;;;18.49;31.06;99719.04;104648;1274;61756;-26
2022/05/19 10:01:47;;;;;;;4.10;2.00;;;;;;;19.07;32.20;99711.84;105056;1275;74813;-25
2022/05/19 10:04:25;;;;;;;3.30;1.80;;;;;;;19.54;29.39;99712.18;104662;1275;74825;-25
2022/05/19 10:07:06;;;;;;;5.10;2.50;;;;;;;19.82;30.75;99710.06;104588;1275;72448;-25
2022/05/19 10:09:41;;;;;;;4.50;1.40;;;;;;;19.65;29.93;99692.19;104721;1274;61264;-26
2022/05/19 10:12:11;;;;;;;2.20;1.20;;;;;;;19.56;29.91;99707.19;104995;1274;62219;-26
2022/05/19 10:14:41;;;;;;;2.50;1.30;;;;;;;19.51;27.15;99696.52;104753;1275;74834;-26
2022/05/19 10:17:32;;;;;;;2.40;1.30;;;;;;;19.23;28.13;99696.50;105150;1274;76107;-26
2022/05/19 10:20:24;;;;;;;1.30;0.90;;;;;;;19.75;27.80;99697.91;104946;1274;74404;-26
2022/05/19 10:23:29;;;;;;;4.60;2.20;;;;;;;19.65;28.02;99695.86;104755;1274;61029;-26
2022/05/19 10:26:11;;;;;;;5.40;1.90;;;;;;;19.80;28.32;99697.56;104956;1275;61062;-26
2022/05/19 10:31:52;;;;;;;3.00;1.50;;;;;;;19.79;27.30;99682.24;105076;1274;74995;-26
2022/05/19 10:34:48;;;;;;;1.70;1.30;;;;;;;19.22;28.44;99682.75;105006;1274;74534;-26
2022/05/19 10:37:54;;;;;;;5.20;2.30;;;;;;;19.48;27.55;99672.05;104733;1275;62067;-26
2022/05/19 10:40:28;;;;;;;9.90;3.10;;;;;;;19.27;28.93;99676.80;104899;1274;61136;-26
2022/05/19 10:43:07;;;;;;;4.90;2.60;;;;;;;19.61;28.16;99689.39;104798;1274;74589;-26
2022/05/19 10:45:40;;;;;;;4.20;1.40;;;;;;;19.77;27.29;99683.48;104662;1275;76249;-26
2022/05/19 10:48:15;;;;;;;2.20;1.00;;;;;;;19.66;28.14;99675.58;104751;1275;74209;-26
2022/05/19 10:50:55;;;;;;;2.50;1.30;;;;;;;19.23;27.65;99688.95;104816;1277;62131;-26
2022/05/19 10:54:34;;;;;;;4.10;2.00;;;;;;;19.12;27.36;99691.85;104650;1275;61155;-26
2022/05/19 10:57:08;;;;;;;5.00;1.90;;;;;;;19.31;28.60;99694.98;103583;1286;74598;-26
2022/05/19 10:59:40;;;;;;;3.40;1.00;;;;;;;19.26;28.72;99680.36;103847;1286;75804;-26
2022/05/19 11:02:32;;;;;;;2.10;1.20;;;;;;;18.97;27.97;99681.19;103792;1286;74432;-26
2022/05/19 11:05:16;;;;;;;2.20;1.20;;;;;;;18.76;28.03;99691.45;103565;1287;61255;-25
2022/05/19 11:08:00;;;;;;;4.50;1.10;;;;;;;18.81;27.54;99688.65;103736;1286;61139;-25
2022/05/19 11:10:41;;;;;;;1.10;0.80;;;;;;;18.53;27.43;99679.77;103533;1290;74781;-25
2022/05/19 11:13:18;;;;;;;3.00;0.90;;;;;;;18.56;27.43;99686.11;103835;1286;76106;-25
2022/05/19 11:16:01;;;;;;;2.50;0.90;;;;;;;18.42;27.53;99690.27;103829;1286;73494;-26
2022/05/19 11:18:50;;;;;;;2.30;0.90;;;;;;;18.35;28.03;99678.66;103815;1286;61779;-25
2022/05/19 11:21:39;;;;;;;1.60;0.80;;;;;;;18.57;28.67;99678.80;103845;1286;61245;-25
2022/05/19 11:27:54;;;;;;;13.00;1.50;;;;;;;18.13;27.74;99683.72;103123;1292;75809;-25
2022/05/19 11:30:40;;;;;;;0.70;0.70;;;;;;;17.77;28.63;99675.04;102694;1291;74486;-25
2022/05/19 11:33:12;;;;;;;4.10;0.70;;;;;;;17.65;28.42;99676.59;103802;1284;61402;-25
2022/05/19 11:35:43;;;;;;;2.10;0.70;;;;;;;17.63;28.80;99681.58;104276;1283;62137;-25
2022/05/19 11:38:21;;;;;;;2.60;0.80;;;;;;;17.41;29.99;99668.15;104232;1283;74876;-25
2022/05/19 11:40:56;;;;;;;1.90;1.00;;;;;;;17.42;29.80;99674.17;104303;1283;75065;-25
2022/05/19 11:43:44;;;;;;;2.40;1.00;;;;;;;17.49;29.43;99671.85;104108;1284;74450;-25
2022/05/19 11:46:34;;;;;;;1.50;0.90;;;;;;;17.67;30.35;99673.77;103736;1283;62412;-25
2022/05/19 11:55:17;;;;;;;86.50;4.80;;;;;;;17.52;30.22;99650.38;104302;1284;75087;-25
2022/05/19 11:58:04;;;;;;;1.50;0.70;;;;;;;17.71;30.41;99653.36;104323;1283;73149;-25
2022/05/19 12:00:41;;;;;;;3.50;0.80;;;;;;;17.62;29.71;99642.67;104439;1283;62152;-25
2022/05/19 12:03:29;;;;;;;0.90;0.70;;;;;;;17.62;30.03;99640.96;104730;1277;62019;-25
2022/05/19 12:06:22;;;;;;;1.50;0.70;;;;;;;17.48;29.78;99638.64;104597;1275;74736;-25
2022/05/19 12:09:06;;;;;;;1.30;0.70;;;;;;;17.42;29.80;99642.45;104676;1274;76004;-25
2022/05/19 12:11:45;;;;;;;4.00;1.10;;;;;;;17.40;29.97;99645.99;104535;1274;74406;-25
2022/05/19 12:14:27;;;;;;;1.60;0.80;;;;;;;17.30;29.18;99641.55;104693;1277;61839;-25
2022/05/19 12:16:59;;;;;;;1.60;0.60;;;;;;;17.30;28.58;99641.15;104577;1275;62027;-25
2022/05/19 12:20:02;;;;;;;2.20;0.90;;;;;;;17.33;28.80;99636.14;104659;1275;74718;-25